sensor_id;sensor_type;location;lat;lon;timestamp;pressure;altitude;pressure_sealevel;temperature;humidity
7157;BME280;3620;49.862;8.758;2022-12-24T00:00:29;98572.72;;;12.13;100.00
7157;BME280;3620;49.862;8.758;2022-12-24T00:02:56;98570.59;;;12.18;99.16
7157;BME280;3620;49.862;8.758;2022-12-24T00:05:24;98561.13;;;12.15;99.34
7157;BME280;3620;49.862;8.758;2022-12-24T00:07:50;98568.75;;;12.20;98.61
7157;BME280;3620;49.862;8.758;2022-12-24T00:10:17;98575.25;;;12.00;99.17
7157;BME280;3620;49.862;8.758;2022-12-24T00:12:44;98577.81;;;12.02;97.40
7157;BME280;3620;49.862;8.758;2022-12-24T00:15:10;98584.84;;;12.01;97.65
7157;BME280;3620;49.862;8.758;2022-12-24T00:17:37;98580.22;;;12.05;97.29
7157;BME280;3620;49.862;8.758;2022-12-24T00:20:05;98579.88;;;12.11;96.80
7157;BME280;3620;49.862;8.758;2022-12-24T00:22:33;98587.50;;;12.15;97.03
7157;BME280;3620;49.862;8.758;2022-12-24T00:24:59;98587.97;;;12.08;96.18
7157;BME280;3620;49.862;8.758;2022-12-24T00:27:26;98592.88;;;12.00;97.53
7157;BME280;3620;49.862;8.758;2022-12-24T00:29:52;98585.72;;;12.02;98.02
7157;BME280;3620;49.862;8.758;2022-12-24T00:32:19;98593.31;;;11.92;96.89
7157;BME280;3620;49.862;8.758;2022-12-24T00:34:45;98598.69;;;11.91;97.29
7157;BME280;3620;49.862;8.758;2022-12-24T00:37:12;98601.13;;;11.94;97.64
7157;BME280;3620;49.862;8.758;2022-12-24T00:39:40;98598.88;;;11.88;96.80
7157;BME280;3620;49.862;8.758;2022-12-24T00:42:06;98607.91;;;11.84;96.54
7157;BME280;3620;49.862;8.758;2022-12-24T00:44:33;98609.69;;;11.83;96.47
7157;BME280;3620;49.862;8.758;2022-12-24T00:46:59;98623.44;;;11.88;96.15
7157;BME280;3620;49.862;8.758;2022-12-24T00:49:26;98631.53;;;11.85;96.64
7157;BME280;3620;49.862;8.758;2022-12-24T00:51:52;98625.88;;;11.91;95.63
7157;BME280;3620;49.862;8.758;2022-12-24T00:54:19;98626.56;;;11.95;96.57
7157;BME280;3620;49.862;8.758;2022-12-24T00:56:46;98626.00;;;12.04;95.89
7157;BME280;3620;49.862;8.758;2022-12-24T00:59:13;98629.38;;;12.06;96.32
7157;BME280;3620;49.862;8.758;2022-12-24T01:01:40;98620.53;;;12.07;96.03
7157;BME280;3620;49.862;8.758;2022-12-24T01:04:06;98626.09;;;12.16;95.93
7157;BME280;3620;49.862;8.758;2022-12-24T01:06:50;98631.94;;;12.21;96.46
7157;BME280;3620;49.862;8.758;2022-12-24T01:09:17;98628.44;;;12.21;97.99
7157;BME280;3620;49.862;8.758;2022-12-24T01:11:43;98642.19;;;12.26;98.28
7157;BME280;3620;49.862;8.758;2022-12-24T01:14:11;98638.59;;;12.27;97.90
7157;BME280;3620;49.862;8.758;2022-12-24T01:16:38;98637.22;;;12.35;97.66
7157;BME280;3620;49.862;8.758;2022-12-24T01:19:04;98637.66;;;12.14;97.42
7157;BME280;3620;49.862;8.758;2022-12-24T01:21:31;98636.53;;;12.18;97.80
7157;BME280;3620;49.862;8.758;2022-12-24T01:23:58;98656.13;;;12.28;96.74
7157;BME280;3620;49.862;8.758;2022-12-24T01:26:24;98654.41;;;12.27;97.09
7157;BME280;3620;49.862;8.758;2022-12-24T01:28:51;98671.00;;;12.29;96.41
7157;BME280;3620;49.862;8.758;2022-12-24T01:31:19;98669.50;;;12.25;96.21
7157;BME280;3620;49.862;8.758;2022-12-24T01:33:48;98675.03;;;12.20;96.12
7157;BME280;3620;49.862;8.758;2022-12-24T01:36:15;98671.78;;;12.31;96.08
7157;BME280;3620;49.862;8.758;2022-12-24T01:38:41;98674.97;;;12.36;94.58
7157;BME280;3620;49.862;8.758;2022-12-24T01:41:13;98669.97;;;12.31;94.36
7157;BME280;3620;49.862;8.758;2022-12-24T01:43:57;98682.69;;;12.11;95.75
7157;BME280;3620;49.862;8.758;2022-12-24T01:46:27;98689.34;;;12.16;96.42
7157;BME280;3620;49.862;8.758;2022-12-24T01:48:56;98695.66;;;12.14;95.45
7157;BME280;3620;49.862;8.758;2022-12-24T01:51:28;98698.88;;;12.19;96.07
7157;BME280;3620;49.862;8.758;2022-12-24T01:53:58;98698.88;;;12.19;95.93
7157;BME280;3620;49.862;8.758;2022-12-24T01:56:27;98699.91;;;12.16;95.76
7157;BME280;3620;49.862;8.758;2022-12-24T01:58:59;98707.75;;;12.32;95.45
7157;BME280;3620;49.862;8.758;2022-12-24T02:01:29;98719.59;;;12.25;95.34
7157;BME280;3620;49.862;8.758;2022-12-24T02:03:55;98729.97;;;12.28;95.49
7157;BME280;3620;49.862;8.758;2022-12-24T02:06:22;98724.03;;;12.24;95.71
7157;BME280;3620;49.862;8.758;2022-12-24T02:08:49;98716.59;;;12.17;96.75
7157;BME280;3620;49.862;8.758;2022-12-24T02:11:17;98732.94;;;12.08;96.72
7157;BME280;3620;49.862;8.758;2022-12-24T02:13:46;98724.66;;;12.00;96.51
7157;BME280;3620;49.862;8.758;2022-12-24T02:16:28;98739.88;;;11.95;96.47
7157;BME280;3620;49.862;8.758;2022-12-24T02:19:14;98746.81;;;11.82;97.47
7157;BME280;3620;49.862;8.758;2022-12-24T02:21:52;98745.09;;;11.81;97.08
7157;BME280;3620;49.862;8.758;2022-12-24T02:24:44;98750.00;;;11.87;96.75
7157;BME280;3620;49.862;8.758;2022-12-24T02:27:22;98741.53;;;11.82;96.78
7157;BME280;3620;49.862;8.758;2022-12-24T02:30:10;98751.59;;;11.75;96.61
7157;BME280;3620;49.862;8.758;2022-12-24T02:35:37;98758.25;;;11.96;96.71
7157;BME280;3620;49.862;8.758;2022-12-24T02:38:12;98749.69;;;11.93;95.36
7157;BME280;3620;49.862;8.758;2022-12-24T02:40:42;98759.25;;;11.94;95.91
7157;BME280;3620;49.862;8.758;2022-12-24T02:43:14;98749.84;;;11.90;95.61
7157;BME280;3620;49.862;8.758;2022-12-24T02:45:45;98749.63;;;11.78;96.09
7157;BME280;3620;49.862;8.758;2022-12-24T02:48:15;98745.69;;;11.86;95.74
7157;BME280;3620;49.862;8.758;2022-12-24T02:50:54;98745.31;;;11.77;95.72
7157;BME280;3620;49.862;8.758;2022-12-24T02:53:21;98748.50;;;11.83;96.00
7157;BME280;3620;49.862;8.758;2022-12-24T02:55:58;98760.91;;;11.81;95.15
7157;BME280;3620;49.862;8.758;2022-12-24T02:58:35;98764.53;;;11.94;94.59
7157;BME280;3620;49.862;8.758;2022-12-24T03:01:11;98772.28;;;11.97;94.71
7157;BME280;3620;49.862;8.758;2022-12-24T03:03:52;98764.72;;;11.91;95.79
7157;BME280;3620;49.862;8.758;2022-12-24T03:06:39;98764.53;;;11.94;93.99
7157;BME280;3620;49.862;8.758;2022-12-24T03:09:17;98748.28;;;12.01;94.19
7157;BME280;3620;49.862;8.758;2022-12-24T03:11:49;98766.38;;;12.07;94.30
7157;BME280;3620;49.862;8.758;2022-12-24T03:14:20;98788.75;;;12.00;95.13
7157;BME280;3620;49.862;8.758;2022-12-24T03:16:49;98776.94;;;11.92;95.53
7157;BME280;3620;49.862;8.758;2022-12-24T03:19:16;98789.28;;;11.91;96.53
7157;BME280;3620;49.862;8.758;2022-12-24T03:21:44;98782.81;;;11.97;96.77
7157;BME280;3620;49.862;8.758;2022-12-24T03:24:11;98785.50;;;11.81;98.12
7157;BME280;3620;49.862;8.758;2022-12-24T03:26:38;98777.59;;;11.81;97.99
7157;BME280;3620;49.862;8.758;2022-12-24T03:29:06;98785.31;;;11.84;98.26
7157;BME280;3620;49.862;8.758;2022-12-24T03:31:41;98775.81;;;11.82;98.28
7157;BME280;3620;49.862;8.758;2022-12-24T03:34:09;98781.47;;;11.90;98.04
7157;BME280;3620;49.862;8.758;2022-12-24T03:36:36;98772.16;;;11.84;98.42
7157;BME280;3620;49.862;8.758;2022-12-24T03:39:03;98775.22;;;11.76;99.45
7157;BME280;3620;49.862;8.758;2022-12-24T03:41:29;98773.50;;;11.75;99.12
7157;BME280;3620;49.862;8.758;2022-12-24T03:43:56;98778.59;;;11.78;98.80
7157;BME280;3620;49.862;8.758;2022-12-24T03:46:22;98789.31;;;11.75;99.73
7157;BME280;3620;49.862;8.758;2022-12-24T03:48:49;98770.59;;;11.80;99.48
7157;BME280;3620;49.862;8.758;2022-12-24T03:51:18;98779.47;;;11.79;99.22
7157;BME280;3620;49.862;8.758;2022-12-24T03:53:46;98776.94;;;11.77;99.38
7157;BME280;3620;49.862;8.758;2022-12-24T03:56:12;98776.72;;;11.81;99.75
7157;BME280;3620;49.862;8.758;2022-12-24T03:58:39;98771.09;;;11.87;99.45
7157;BME280;3620;49.862;8.758;2022-12-24T04:01:06;98789.63;;;11.85;99.79
7157;BME280;3620;49.862;8.758;2022-12-24T04:03:32;98784.56;;;11.82;99.26
7157;BME280;3620;49.862;8.758;2022-12-24T04:06:00;98783.19;;;11.91;98.93
7157;BME280;3620;49.862;8.758;2022-12-24T04:08:28;98785.75;;;11.76;100.00
7157;BME280;3620;49.862;8.758;2022-12-24T04:10:55;98785.00;;;11.74;100.00
7157;BME280;3620;49.862;8.758;2022-12-24T04:13:22;98788.97;;;11.82;100.00
7157;BME280;3620;49.862;8.758;2022-12-24T04:15:56;98789.91;;;11.81;100.00
7157;BME280;3620;49.862;8.758;2022-12-24T04:18:22;98792.03;;;11.74;100.00
7157;BME280;3620;49.862;8.758;2022-12-24T04:20:49;98802.16;;;11.82;100.00
7157;BME280;3620;49.862;8.758;2022-12-24T04:23:15;98804.59;;;11.85;100.00
7157;BME280;3620;49.862;8.758;2022-12-24T04:25:43;98808.34;;;11.81;100.00
7157;BME280;3620;49.862;8.758;2022-12-24T04:28:10;98822.22;;;11.84;100.00
7157;BME280;3620;49.862;8.758;2022-12-24T04:30:37;98825.34;;;11.91;100.00
7157;BME280;3620;49.862;8.758;2022-12-24T04:33:03;98836.22;;;11.85;100.00
7157;BME280;3620;49.862;8.758;2022-12-24T04:35:30;98828.22;;;12.02;100.00
7157;BME280;3620;49.862;8.758;2022-12-24T04:37:56;98830.63;;;11.91;100.00
7157;BME280;3620;49.862;8.758;2022-12-24T04:40:23;98823.00;;;12.00;100.00
7157;BME280;3620;49.862;8.758;2022-12-24T04:42:51;98830.66;;;12.05;100.00
7157;BME280;3620;49.862;8.758;2022-12-24T04:45:18;98831.19;;;11.96;100.00
7157;BME280;3620;49.862;8.758;2022-12-24T04:47:44;98845.22;;;11.96;100.00
7157;BME280;3620;49.862;8.758;2022-12-24T04:50:11;98836.66;;;11.93;100.00
7157;BME280;3620;49.862;8.758;2022-12-24T04:52:37;98836.06;;;11.88;100.00
7157;BME280;3620;49.862;8.758;2022-12-24T04:55:04;98819.25;;;11.74;100.00
7157;BME280;3620;49.862;8.758;2022-12-24T04:57:31;98833.03;;;11.80;100.00
7157;BME280;3620;49.862;8.758;2022-12-24T05:00:01;98839.13;;;11.80;100.00
7157;BME280;3620;49.862;8.758;2022-12-24T05:02:27;98824.50;;;11.74;100.00
7157;BME280;3620;49.862;8.758;2022-12-24T05:04:54;98819.66;;;11.67;100.00
7157;BME280;3620;49.862;8.758;2022-12-24T05:07:21;98817.72;;;11.70;100.00
7157;BME280;3620;49.862;8.758;2022-12-24T05:09:47;98828.91;;;11.58;100.00
7157;BME280;3620;49.862;8.758;2022-12-24T05:12:14;98827.13;;;11.59;100.00
7157;BME280;3620;49.862;8.758;2022-12-24T05:14:40;98834.19;;;11.58;100.00
7157;BME280;3620;49.862;8.758;2022-12-24T05:17:08;98842.34;;;11.69;100.00
7157;BME280;3620;49.862;8.758;2022-12-24T05:19:35;98832.31;;;11.60;100.00
7157;BME280;3620;49.862;8.758;2022-12-24T05:22:01;98844.47;;;11.78;100.00
7157;BME280;3620;49.862;8.758;2022-12-24T05:24:45;98847.88;;;11.81;100.00
7157;BME280;3620;49.862;8.758;2022-12-24T05:27:30;98843.38;;;11.83;100.00
7157;BME280;3620;49.862;8.758;2022-12-24T05:29:56;98839.22;;;11.78;100.00
7157;BME280;3620;49.862;8.758;2022-12-24T05:32:24;98851.53;;;11.78;100.00
7157;BME280;3620;49.862;8.758;2022-12-24T05:34:51;98854.78;;;11.67;100.00
7157;BME280;3620;49.862;8.758;2022-12-24T05:37:18;98841.69;;;11.82;100.00
7157;BME280;3620;49.862;8.758;2022-12-24T05:39:44;98842.09;;;11.74;100.00
7157;BME280;3620;49.862;8.758;2022-12-24T05:42:11;98847.13;;;11.78;100.00
7157;BME280;3620;49.862;8.758;2022-12-24T05:44:37;98837.78;;;11.89;100.00
7157;BME280;3620;49.862;8.758;2022-12-24T05:47:04;98854.63;;;11.70;100.00
7157;BME280;3620;49.862;8.758;2022-12-24T05:49:31;98856.81;;;11.78;100.00
7157;BME280;3620;49.862;8.758;2022-12-24T05:51:58;98861.25;;;11.77;100.00
7157;BME280;3620;49.862;8.758;2022-12-24T05:54:25;98859.53;;;11.76;100.00
7157;BME280;3620;49.862;8.758;2022-12-24T05:56:51;98858.91;;;11.87;100.00
7157;BME280;3620;49.862;8.758;2022-12-24T05:59:18;98861.66;;;11.86;100.00
7157;BME280;3620;49.862;8.758;2022-12-24T06:01:44;98855.16;;;11.91;100.00
7157;BME280;3620;49.862;8.758;2022-12-24T06:04:12;98860.91;;;11.84;100.00
7157;BME280;3620;49.862;8.758;2022-12-24T06:06:40;98857.91;;;11.90;100.00
7157;BME280;3620;49.862;8.758;2022-12-24T06:09:06;98863.69;;;11.81;100.00
7157;BME280;3620;49.862;8.758;2022-12-24T06:11:33;98853.75;;;11.86;100.00
7157;BME280;3620;49.862;8.758;2022-12-24T06:14:00;98864.13;;;11.89;100.00
7157;BME280;3620;49.862;8.758;2022-12-24T06:16:27;98850.50;;;11.81;100.00
7157;BME280;3620;49.862;8.758;2022-12-24T06:18:54;98867.19;;;11.81;100.00
7157;BME280;3620;49.862;8.758;2022-12-24T06:21:20;98858.41;;;11.81;100.00
7157;BME280;3620;49.862;8.758;2022-12-24T06:23:48;98864.28;;;11.86;100.00
7157;BME280;3620;49.862;8.758;2022-12-24T06:26:16;98865.81;;;11.90;100.00
7157;BME280;3620;49.862;8.758;2022-12-24T06:28:46;98875.69;;;11.86;100.00
7157;BME280;3620;49.862;8.758;2022-12-24T06:31:15;98870.22;;;11.89;100.00
7157;BME280;3620;49.862;8.758;2022-12-24T06:33:42;98877.38;;;11.87;100.00
7157;BME280;3620;49.862;8.758;2022-12-24T06:36:12;98880.94;;;12.02;100.00
7157;BME280;3620;49.862;8.758;2022-12-24T06:38:39;98893.13;;;11.89;100.00
7157;BME280;3620;49.862;8.758;2022-12-24T06:41:07;98887.25;;;11.84;100.00
7157;BME280;3620;49.862;8.758;2022-12-24T06:43:34;98888.59;;;11.91;100.00
7157;BME280;3620;49.862;8.758;2022-12-24T06:46:01;98886.88;;;11.90;100.00
7157;BME280;3620;49.862;8.758;2022-12-24T06:48:28;98895.41;;;11.95;100.00
7157;BME280;3620;49.862;8.758;2022-12-24T06:50:55;98888.09;;;11.84;100.00
7157;BME280;3620;49.862;8.758;2022-12-24T06:53:21;98893.19;;;11.87;100.00
7157;BME280;3620;49.862;8.758;2022-12-24T06:55:48;98896.78;;;11.86;100.00
7157;BME280;3620;49.862;8.758;2022-12-24T06:58:16;98899.31;;;11.88;100.00
7157;BME280;3620;49.862;8.758;2022-12-24T07:00:42;98906.69;;;11.97;100.00
7157;BME280;3620;49.862;8.758;2022-12-24T07:03:09;98917.00;;;11.86;100.00
7157;BME280;3620;49.862;8.758;2022-12-24T07:05:36;98920.75;;;11.82;100.00
7157;BME280;3620;49.862;8.758;2022-12-24T07:08:03;98926.00;;;11.82;100.00
7157;BME280;3620;49.862;8.758;2022-12-24T07:10:30;98922.88;;;11.91;100.00
7157;BME280;3620;49.862;8.758;2022-12-24T07:12:56;98929.41;;;11.99;100.00
7157;BME280;3620;49.862;8.758;2022-12-24T07:15:26;98918.53;;;11.90;100.00
7157;BME280;3620;49.862;8.758;2022-12-24T07:17:52;98928.72;;;11.96;100.00
7157;BME280;3620;49.862;8.758;2022-12-24T07:20:19;98930.44;;;11.97;100.00
7157;BME280;3620;49.862;8.758;2022-12-24T07:22:45;98929.06;;;11.90;100.00
7157;BME280;3620;49.862;8.758;2022-12-24T07:25:11;98931.94;;;12.01;100.00
7157;BME280;3620;49.862;8.758;2022-12-24T07:27:38;98941.97;;;11.94;100.00
7157;BME280;3620;49.862;8.758;2022-12-24T07:30:06;98941.91;;;11.96;100.00
7157;BME280;3620;49.862;8.758;2022-12-24T07:32:34;98940.06;;;11.98;100.00
7157;BME280;3620;49.862;8.758;2022-12-24T07:35:00;98963.78;;;11.98;100.00
7157;BME280;3620;49.862;8.758;2022-12-24T07:37:27;98959.00;;;12.04;100.00
7157;BME280;3620;49.862;8.758;2022-12-24T07:39:54;98962.72;;;12.16;100.00
7157;BME280;3620;49.862;8.758;2022-12-24T07:42:20;98962.16;;;12.26;100.00
7157;BME280;3620;49.862;8.758;2022-12-24T07:44:47;98969.34;;;12.23;100.00
7157;BME280;3620;49.862;8.758;2022-12-24T07:47:13;98962.97;;;12.27;100.00
7157;BME280;3620;49.862;8.758;2022-12-24T07:49:41;98972.50;;;12.14;100.00
7157;BME280;3620;49.862;8.758;2022-12-24T07:52:08;98964.34;;;12.18;100.00
7157;BME280;3620;49.862;8.758;2022-12-24T07:54:35;98979.75;;;12.10;100.00
7157;BME280;3620;49.862;8.758;2022-12-24T07:57:01;98976.00;;;12.14;100.00
7157;BME280;3620;49.862;8.758;2022-12-24T07:59:28;98987.81;;;12.07;100.00
7157;BME280;3620;49.862;8.758;2022-12-24T08:01:54;98983.66;;;12.19;100.00
7157;BME280;3620;49.862;8.758;2022-12-24T08:04:20;98985.19;;;12.23;100.00
7157;BME280;3620;49.862;8.758;2022-12-24T08:06:48;98993.44;;;12.17;100.00
7157;BME280;3620;49.862;8.758;2022-12-24T08:09:15;99005.41;;;12.07;100.00
7157;BME280;3620;49.862;8.758;2022-12-24T08:11:42;98996.56;;;11.92;100.00
7157;BME280;3620;49.862;8.758;2022-12-24T08:14:08;99012.38;;;11.76;100.00
7157;BME280;3620;49.862;8.758;2022-12-24T08:16:35;99011.72;;;11.89;100.00
7157;BME280;3620;49.862;8.758;2022-12-24T08:19:01;99013.91;;;11.81;100.00
7157;BME280;3620;49.862;8.758;2022-12-24T08:21:28;99019.34;;;11.77;100.00
7157;BME280;3620;49.862;8.758;2022-12-24T08:23:55;99012.97;;;11.64;100.00
7157;BME280;3620;49.862;8.758;2022-12-24T08:26:22;99005.56;;;11.72;100.00
7157;BME280;3620;49.862;8.758;2022-12-24T08:28:49;99012.72;;;11.70;100.00
7157;BME280;3620;49.862;8.758;2022-12-24T08:31:15;99019.84;;;11.68;100.00
7157;BME280;3620;49.862;8.758;2022-12-24T08:33:42;99021.28;;;11.74;100.00
7157;BME280;3620;49.862;8.758;2022-12-24T08:36:08;99026.03;;;11.67;100.00
7157;BME280;3620;49.862;8.758;2022-12-24T08:38:35;99028.50;;;11.70;100.00
7157;BME280;3620;49.862;8.758;2022-12-24T08:41:03;99030.38;;;11.68;100.00
7157;BME280;3620;49.862;8.758;2022-12-24T08:43:29;99030.66;;;11.62;100.00
7157;BME280;3620;49.862;8.758;2022-12-24T08:46:00;99024.94;;;11.71;100.00
7157;BME280;3620;49.862;8.758;2022-12-24T08:48:27;99029.88;;;11.60;100.00
7157;BME280;3620;49.862;8.758;2022-12-24T08:50:54;99030.31;;;11.53;100.00
7157;BME280;3620;49.862;8.758;2022-12-24T08:53:20;99026.66;;;11.55;100.00
7157;BME280;3620;49.862;8.758;2022-12-24T08:55:47;99037.78;;;11.60;100.00
7157;BME280;3620;49.862;8.758;2022-12-24T08:58:15;99027.56;;;11.54;100.00
7157;BME280;3620;49.862;8.758;2022-12-24T09:00:41;99031.84;;;11.57;100.00
7157;BME280;3620;49.862;8.758;2022-12-24T09:03:11;99028.69;;;11.50;100.00
7157;BME280;3620;49.862;8.758;2022-12-24T09:05:39;99037.25;;;11.54;100.00
7157;BME280;3620;49.862;8.758;2022-12-24T09:08:06;99040.59;;;11.57;100.00
7157;BME280;3620;49.862;8.758;2022-12-24T09:10:32;99042.22;;;11.60;100.00
7157;BME280;3620;49.862;8.758;2022-12-24T09:12:59;99042.84;;;11.48;100.00
7157;BME280;3620;49.862;8.758;2022-12-24T09:15:27;99044.72;;;11.46;100.00
7157;BME280;3620;49.862;8.758;2022-12-24T09:17:53;99055.63;;;11.55;100.00
7157;BME280;3620;49.862;8.758;2022-12-24T09:20:20;99057.00;;;11.62;100.00
7157;BME280;3620;49.862;8.758;2022-12-24T09:22:46;99062.13;;;11.65;100.00
7157;BME280;3620;49.862;8.758;2022-12-24T09:25:13;99062.13;;;11.65;100.00
7157;BME280;3620;49.862;8.758;2022-12-24T09:27:39;99067.09;;;11.71;100.00
7157;BME280;3620;49.862;8.758;2022-12-24T09:30:07;99072.34;;;11.71;100.00
7157;BME280;3620;49.862;8.758;2022-12-24T09:32:35;99065.22;;;11.73;100.00
7157;BME280;3620;49.862;8.758;2022-12-24T09:35:02;99070.25;;;11.61;100.00
7157;BME280;3620;49.862;8.758;2022-12-24T09:37:29;99081.66;;;11.61;100.00
7157;BME280;3620;49.862;8.758;2022-12-24T09:39:55;99085.38;;;11.74;100.00
7157;BME280;3620;49.862;8.758;2022-12-24T09:42:30;99078.38;;;11.91;100.00
7157;BME280;3620;49.862;8.758;2022-12-24T09:45:05;99086.34;;;11.89;100.00
7157;BME280;3620;49.862;8.758;2022-12-24T09:47:38;99095.53;;;11.82;100.00
7157;BME280;3620;49.862;8.758;2022-12-24T09:50:21;99102.00;;;11.92;100.00
7157;BME280;3620;49.862;8.758;2022-12-24T09:52:51;99103.16;;;11.87;100.00
7157;BME280;3620;49.862;8.758;2022-12-24T09:55:22;99110.28;;;12.02;100.00
7157;BME280;3620;49.862;8.758;2022-12-24T09:57:52;99093.00;;;11.96;100.00
7157;BME280;3620;49.862;8.758;2022-12-24T10:00:20;99104.06;;;12.03;100.00
7157;BME280;3620;49.862;8.758;2022-12-24T10:02:49;99113.00;;;12.00;100.00
7157;BME280;3620;49.862;8.758;2022-12-24T10:05:17;99120.84;;;12.02;100.00
7157;BME280;3620;49.862;8.758;2022-12-24T10:07:54;99126.22;;;12.16;100.00
7157;BME280;3620;49.862;8.758;2022-12-24T10:10:30;99117.91;;;12.39;100.00
7157;BME280;3620;49.862;8.758;2022-12-24T10:13:04;99120.81;;;12.50;100.00
7157;BME280;3620;49.862;8.758;2022-12-24T10:15:38;99128.50;;;12.70;100.00
7157;BME280;3620;49.862;8.758;2022-12-24T10:18:20;99131.91;;;12.72;100.00
7157;BME280;3620;49.862;8.758;2022-12-24T10:20:57;99140.47;;;12.60;100.00
7157;BME280;3620;49.862;8.758;2022-12-24T10:23:31;99147.72;;;12.88;100.00
7157;BME280;3620;49.862;8.758;2022-12-24T10:26:07;99134.63;;;12.71;100.00
7157;BME280;3620;49.862;8.758;2022-12-24T10:28:43;99135.56;;;12.85;100.00
7157;BME280;3620;49.862;8.758;2022-12-24T10:31:11;99125.41;;;12.93;100.00
7157;BME280;3620;49.862;8.758;2022-12-24T10:33:41;99128.63;;;12.98;100.00
7157;BME280;3620;49.862;8.758;2022-12-24T10:36:13;99121.47;;;13.00;100.00
7157;BME280;3620;49.862;8.758;2022-12-24T10:38:40;99111.88;;;12.99;100.00
7157;BME280;3620;49.862;8.758;2022-12-24T10:41:07;99120.06;;;13.10;100.00
7157;BME280;3620;49.862;8.758;2022-12-24T10:43:34;99119.59;;;13.02;99.85
7157;BME280;3620;49.862;8.758;2022-12-24T10:46:16;99128.63;;;12.98;100.00
7157;BME280;3620;49.862;8.758;2022-12-24T10:48:50;99120.66;;;12.84;100.00
7157;BME280;3620;49.862;8.758;2022-12-24T10:51:21;99143.13;;;13.07;99.80
7157;BME280;3620;49.862;8.758;2022-12-24T10:53:51;99136.16;;;13.21;100.00
7157;BME280;3620;49.862;8.758;2022-12-24T10:56:21;99146.50;;;13.24;98.87
7157;BME280;3620;49.862;8.758;2022-12-24T10:58:51;99142.19;;;13.23;99.35
7157;BME280;3620;49.862;8.758;2022-12-24T11:01:18;99141.47;;;13.36;98.60
7157;BME280;3620;49.862;8.758;2022-12-24T11:03:59;99146.19;;;13.31;97.95
7157;BME280;3620;49.862;8.758;2022-12-24T11:06:26;99145.78;;;13.52;97.63
7157;BME280;3620;49.862;8.758;2022-12-24T11:08:52;99145.13;;;13.49;97.35
7157;BME280;3620;49.862;8.758;2022-12-24T11:11:20;99139.53;;;13.23;97.34
7157;BME280;3620;49.862;8.758;2022-12-24T11:13:52;99149.34;;;13.21;98.34
7157;BME280;3620;49.862;8.758;2022-12-24T11:16:24;99149.75;;;13.30;97.69
7157;BME280;3620;49.862;8.758;2022-12-24T11:18:55;99155.53;;;13.36;97.32
7157;BME280;3620;49.862;8.758;2022-12-24T11:21:23;99147.09;;;13.30;97.78
7157;BME280;3620;49.862;8.758;2022-12-24T11:23:53;99152.16;;;13.18;98.26
7157;BME280;3620;49.862;8.758;2022-12-24T11:26:22;99140.47;;;13.22;97.57
7157;BME280;3620;49.862;8.758;2022-12-24T11:29:13;99134.78;;;13.14;97.01
7157;BME280;3620;49.862;8.758;2022-12-24T11:31:40;99140.47;;;13.22;97.18
7157;BME280;3620;49.862;8.758;2022-12-24T11:34:22;99144.66;;;13.27;97.51
7157;BME280;3620;49.862;8.758;2022-12-24T11:36:50;99136.38;;;13.33;96.58
7157;BME280;3620;49.862;8.758;2022-12-24T11:39:20;99142.44;;;13.19;97.74
7157;BME280;3620;49.862;8.758;2022-12-24T11:41:47;99137.66;;;13.26;98.43
7157;BME280;3620;49.862;8.758;2022-12-24T11:44:23;99142.34;;;13.20;100.00
7157;BME280;3620;49.862;8.758;2022-12-24T11:46:50;99152.16;;;13.18;100.00
7157;BME280;3620;49.862;8.758;2022-12-24T11:49:25;99145.75;;;13.22;100.00
7157;BME280;3620;49.862;8.758;2022-12-24T11:52:18;99142.44;;;13.03;100.00
7157;BME280;3620;49.862;8.758;2022-12-24T11:54:59;99138.31;;;13.29;100.00
7157;BME280;3620;49.862;8.758;2022-12-24T11:57:34;99142.59;;;13.32;100.00
7157;BME280;3620;49.862;8.758;2022-12-24T12:00:08;99135.75;;;13.43;100.00
7157;BME280;3620;49.862;8.758;2022-12-24T12:02:37;99136.97;;;13.38;100.00
7157;BME280;3620;49.862;8.758;2022-12-24T12:05:10;99134.75;;;13.30;100.00
7157;BME280;3620;49.862;8.758;2022-12-24T12:07:38;99140.53;;;13.37;100.00
7157;BME280;3620;49.862;8.758;2022-12-24T12:10:10;99140.06;;;13.60;100.00
7157;BME280;3620;49.862;8.758;2022-12-24T12:12:43;99130.81;;;13.37;100.00
7157;BME280;3620;49.862;8.758;2022-12-24T12:15:14;99136.97;;;13.38;100.00
7157;BME280;3620;49.862;8.758;2022-12-24T12:17:45;99135.94;;;13.24;100.00
7157;BME280;3620;49.862;8.758;2022-12-24T12:20:20;99140.13;;;13.29;100.00
7157;BME280;3620;49.862;8.758;2022-12-24T12:22:54;99136.91;;;13.23;100.00
7157;BME280;3620;49.862;8.758;2022-12-24T12:25:25;99130.38;;;13.15;100.00
7157;BME280;3620;49.862;8.758;2022-12-24T12:27:54;99134.63;;;13.17;99.65
7157;BME280;3620;49.862;8.758;2022-12-24T12:30:22;99134.94;;;13.11;99.54
7157;BME280;3620;49.862;8.758;2022-12-24T12:32:53;99133.56;;;13.04;99.19
7157;BME280;3620;49.862;8.758;2022-12-24T12:35:25;99140.16;;;13.13;100.00
7157;BME280;3620;49.862;8.758;2022-12-24T12:37:56;99132.91;;;13.16;98.70
7157;BME280;3620;49.862;8.758;2022-12-24T12:40:43;99139.47;;;13.09;100.00
7157;BME280;3620;49.862;8.758;2022-12-24T12:43:23;99135.97;;;12.93;100.00
7157;BME280;3620;49.862;8.758;2022-12-24T12:45:54;99145.34;;;12.99;100.00
7157;BME280;3620;49.862;8.758;2022-12-24T12:48:45;99151.28;;;13.02;100.00
7157;BME280;3620;49.862;8.758;2022-12-24T12:51:22;99154.88;;;13.01;99.44
7157;BME280;3620;49.862;8.758;2022-12-24T12:54:04;99148.25;;;12.79;100.00
7157;BME280;3620;49.862;8.758;2022-12-24T12:56:35;99156.56;;;13.02;100.00
7157;BME280;3620;49.862;8.758;2022-12-24T12:59:08;99168.16;;;13.15;100.00
7157;BME280;3620;49.862;8.758;2022-12-24T13:01:43;99170.72;;;13.01;100.00
7157;BME280;3620;49.862;8.758;2022-12-24T13:04:46;99169.34;;;12.94;100.00
7157;BME280;3620;49.862;8.758;2022-12-24T13:07:41;99157.44;;;13.03;100.00
7157;BME280;3620;49.862;8.758;2022-12-24T13:10:27;99162.72;;;13.03;100.00
7157;BME280;3620;49.862;8.758;2022-12-24T13:13:16;99172.59;;;12.99;100.00
7157;BME280;3620;49.862;8.758;2022-12-24T13:16:01;99170.63;;;13.03;100.00
7157;BME280;3620;49.862;8.758;2022-12-24T13:19:00;99178.19;;;12.78;100.00
7157;BME280;3620;49.862;8.758;2022-12-24T13:21:30;99187.75;;;12.80;100.00
7157;BME280;3620;49.862;8.758;2022-12-24T13:24:14;99183.56;;;12.76;100.00
7157;BME280;3620;49.862;8.758;2022-12-24T13:26:42;99191.59;;;12.90;100.00
7157;BME280;3620;49.862;8.758;2022-12-24T13:29:38;99184.03;;;12.84;100.00
7157;BME280;3620;49.862;8.758;2022-12-24T13:32:36;99189.31;;;12.84;100.00